createdAt,value
2022-10-13T00:01:24.895Z,3.25
2022-10-13T00:03:53.902Z,3.31
2022-10-13T00:06:26.249Z,3.16
2022-10-13T00:08:55.632Z,3.28
2022-10-13T00:11:27.295Z,3.18
2022-10-13T00:13:57.720Z,3.15
2022-10-13T00:16:26.801Z,3.26
2022-10-13T00:18:55.022Z,3.27
2022-10-13T00:21:25.437Z,3.17
2022-10-13T00:23:54.608Z,3.11
2022-10-13T00:26:25.969Z,3.23
2022-10-13T00:28:55.712Z,3.07
2022-10-13T00:31:26.636Z,3.14
2022-10-13T00:33:54.952Z,3.11
2022-10-13T00:36:24.265Z,3.20
2022-10-13T00:38:52.787Z,3.01
2022-10-13T00:41:21.957Z,3.06
2022-10-13T00:43:58.711Z,2.98
2022-10-13T00:46:30.367Z,3.13
2022-10-13T00:49:01.960Z,3.11
2022-10-13T00:51:33.378Z,3.13
2022-10-13T00:54:03.617Z,3.16
2022-10-13T00:56:32.835Z,3.06
2022-10-13T00:59:04.562Z,3.02
2022-10-13T01:01:33.233Z,3.10
2022-10-13T01:04:01.538Z,3.01
2022-10-13T01:06:29.937Z,2.97
2022-10-13T01:08:58.070Z,3.02
2022-10-13T01:11:42.011Z,3.10
2022-10-13T01:14:22.356Z,3.09
2022-10-13T01:17:02.293Z,2.97
2022-10-13T01:19:46.639Z,3.04
2022-10-13T01:22:27.545Z,2.95
2022-10-13T01:25:04.834Z,2.82
2022-10-13T01:28:00.723Z,2.90
2022-10-13T01:30:35.658Z,2.92
2022-10-13T01:33:21.168Z,2.94
2022-10-13T01:36:09.336Z,2.89
2022-10-13T01:38:46.113Z,2.75
2022-10-13T01:41:20.112Z,2.66
2022-10-13T01:43:52.185Z,2.87
2022-10-13T01:46:25.572Z,2.83
2022-10-13T01:48:56.619Z,2.76
2022-10-13T01:51:27.841Z,2.74
2022-10-13T01:53:56.116Z,2.92
2022-10-13T01:56:24.253Z,2.80
2022-10-13T01:58:54.678Z,2.80
2022-10-13T02:01:41.835Z,3.07
2022-10-13T02:04:24.559Z,3.11
2022-10-13T02:06:58.726Z,2.91
2022-10-13T02:09:32.091Z,2.96
2022-10-13T02:12:08.719Z,2.72
2022-10-13T02:14:41.493Z,2.96
2022-10-13T02:17:11.462Z,2.85
2022-10-13T02:19:42.036Z,2.96
2022-10-13T02:22:12.860Z,2.95
2022-10-13T02:24:41.266Z,2.87
2022-10-13T02:27:09.829Z,2.87
2022-10-13T02:29:50.687Z,2.84
2022-10-13T02:32:22.365Z,2.92
2022-10-13T02:34:51.199Z,2.91
2022-10-13T02:37:19.477Z,2.90
2022-10-13T02:39:47.671Z,3.08
2022-10-13T02:42:18.549Z,3.05
2022-10-13T02:44:47.231Z,2.96
2022-10-13T02:47:15.336Z,2.89
2022-10-13T02:49:44.874Z,2.97
2022-10-13T02:52:13.023Z,3.09
2022-10-13T02:54:43.297Z,3.11
2022-10-13T02:57:11.403Z,3.25
2022-10-13T02:59:39.596Z,3.30
2022-10-13T03:02:07.746Z,3.20
2022-10-13T03:04:35.896Z,3.25
2022-10-13T03:07:05.832Z,3.18
2022-10-13T03:09:34.230Z,3.40
2022-10-13T03:12:02.622Z,3.49
2022-10-13T03:14:31.161Z,3.48
2022-10-13T03:16:59.672Z,3.49
2022-10-13T03:19:27.832Z,3.18
2022-10-13T03:21:55.979Z,3.34
2022-10-13T03:24:25.598Z,3.31
2022-10-13T03:26:53.768Z,3.10
2022-10-13T03:29:22.605Z,3.24
2022-10-13T03:31:50.747Z,3.17
2022-10-13T03:34:20.588Z,3.06
2022-10-13T03:36:48.765Z,2.81
2022-10-13T03:39:17.028Z,2.79
2022-10-13T03:41:46.517Z,3.00
2022-10-13T03:44:14.731Z,3.06
2022-10-13T03:46:43.025Z,3.03
2022-10-13T03:49:12.293Z,2.92
2022-10-13T03:51:40.588Z,3.01
2022-10-13T03:54:08.884Z,2.98
2022-10-13T03:56:37.285Z,2.93
2022-10-13T03:59:08.288Z,3.06
2022-10-13T04:01:36.514Z,2.95
2022-10-13T04:04:04.882Z,2.91
2022-10-13T04:06:33.131Z,3.06
2022-10-13T04:09:01.307Z,3.09
2022-10-13T04:11:29.558Z,3.02
2022-10-13T04:13:58.733Z,2.99
2022-10-13T04:16:30.122Z,2.92
2022-10-13T04:19:01.654Z,3.02
2022-10-13T04:21:31.253Z,2.97
2022-10-13T04:24:00.709Z,2.86
2022-10-13T04:26:31.793Z,3.02
2022-10-13T04:29:04.721Z,3.28
2022-10-13T04:31:34.846Z,3.20
2022-10-13T04:34:03.000Z,3.13
2022-10-13T04:36:31.735Z,3.08
2022-10-13T04:38:59.892Z,3.06
2022-10-13T04:41:28.018Z,3.21
2022-10-13T04:43:56.228Z,3.18
2022-10-13T04:46:26.784Z,3.35
2022-10-13T04:48:57.550Z,3.38
2022-10-13T04:51:32.895Z,3.39
2022-10-13T04:54:05.503Z,3.34
2022-10-13T04:56:34.165Z,3.38
2022-10-13T04:59:06.223Z,3.44
2022-10-13T05:01:35.958Z,3.48
2022-10-13T05:04:10.656Z,3.37
2022-10-13T05:07:05.183Z,3.31
2022-10-13T05:09:30.115Z,3.24
2022-10-13T05:11:58.239Z,3.26
2022-10-13T05:14:26.696Z,3.43
2022-10-13T05:16:54.846Z,3.45
2022-10-13T05:19:24.421Z,3.55
2022-10-13T05:21:53.355Z,3.43
2022-10-13T05:24:30.929Z,3.20
2022-10-13T05:26:59.381Z,3.28
2022-10-13T05:29:27.548Z,3.36
2022-10-13T05:31:55.713Z,3.33
2022-10-13T05:34:25.173Z,3.36
2022-10-13T05:36:53.697Z,3.48
2022-10-13T05:39:21.848Z,3.62
2022-10-13T05:41:49.981Z,3.64
2022-10-13T05:44:21.987Z,3.58
2022-10-13T05:46:56.872Z,3.71
2022-10-13T05:49:26.528Z,3.73
2022-10-13T05:51:58.215Z,3.89
2022-10-13T05:54:31.460Z,4.05
2022-10-13T05:57:04.023Z,4.26
2022-10-13T05:59:36.279Z,4.31
2022-10-13T06:02:05.256Z,4.50
2022-10-13T06:04:39.177Z,4.57
2022-10-13T06:07:07.612Z,4.82
2022-10-13T06:09:38.772Z,4.90
2022-10-13T06:12:07.324Z,4.89
2022-10-13T06:14:35.896Z,5.15
2022-10-13T06:17:08.393Z,5.27
2022-10-13T06:19:37.849Z,5.41
2022-10-13T06:22:09.217Z,5.64
2022-10-13T06:24:37.398Z,5.86
2022-10-13T06:27:08.482Z,5.97
2022-10-13T06:29:37.758Z,5.99
2022-10-13T06:32:06.829Z,6.07
2022-10-13T06:34:34.966Z,6.28
2022-10-13T06:37:04.917Z,6.32
2022-10-13T06:39:33.180Z,6.35
2022-10-13T06:42:05.556Z,6.47
2022-10-13T06:44:39.120Z,6.56
2022-10-13T06:47:07.701Z,6.53
2022-10-13T06:49:35.860Z,6.53
2022-10-13T06:52:05.907Z,6.59
2022-10-13T06:54:34.421Z,6.80
2022-10-13T06:57:02.589Z,6.75
2022-10-13T06:59:30.723Z,6.82
2022-10-13T07:01:58.926Z,6.87
2022-10-13T07:04:28.045Z,6.90
2022-10-13T07:06:59.123Z,6.88
2022-10-13T07:09:28.757Z,6.99
2022-10-13T07:11:56.884Z,7.15
2022-10-13T07:14:25.156Z,7.25
2022-10-13T07:16:53.702Z,7.20
2022-10-13T07:19:22.469Z,7.33
2022-10-13T07:21:50.648Z,7.46
2022-10-13T07:24:19.175Z,7.59
2022-10-13T07:26:48.722Z,7.80
2022-10-13T07:29:17.116Z,7.77
2022-10-13T07:31:46.832Z,7.89
2022-10-13T07:34:16.590Z,7.89
2022-10-13T07:36:44.820Z,7.85
2022-10-13T07:39:13.460Z,7.95
2022-10-13T07:41:41.635Z,7.90
2022-10-13T07:44:11.094Z,8.03
2022-10-13T07:46:40.267Z,8.17
2022-10-13T07:49:11.156Z,8.08
2022-10-13T07:51:42.065Z,8.12
2022-10-13T07:54:10.207Z,8.11
2022-10-13T07:56:39.873Z,8.16
2022-10-13T07:59:09.001Z,8.20
2022-10-13T08:01:39.132Z,8.34
2022-10-13T08:04:07.603Z,8.39
2022-10-13T08:06:35.823Z,8.51
2022-10-13T08:09:05.728Z,8.43
2022-10-13T08:11:33.876Z,8.50
2022-10-13T08:14:02.013Z,8.57
2022-10-13T08:16:31.539Z,8.85
2022-10-13T08:19:01.267Z,9.05
2022-10-13T08:21:57.001Z,9.27
2022-10-13T08:24:19.401Z,9.55
2022-10-13T08:26:48.579Z,9.79
2022-10-13T08:29:21.785Z,9.93
2022-10-13T08:31:51.437Z,10.06
2022-10-13T08:34:21.713Z,10.26
2022-10-13T08:36:52.914Z,10.46
2022-10-13T08:39:22.105Z,10.68
2022-10-13T08:41:50.980Z,10.83
2022-10-13T08:47:19.323Z,11.16
2022-10-13T08:49:49.047Z,11.51
2022-10-13T08:52:22.330Z,11.69
2022-10-13T08:54:51.742Z,11.74
2022-10-13T08:57:21.888Z,11.97
2022-10-13T08:59:50.477Z,11.91
2022-10-13T09:02:26.443Z,12.31
2022-10-13T09:04:59.707Z,12.45
2022-10-13T09:07:32.248Z,12.27
2022-10-13T09:10:00.449Z,12.45
2022-10-13T09:12:29.547Z,12.50
2022-10-13T09:15:01.352Z,12.54
2022-10-13T09:17:30.587Z,12.79
2022-10-13T09:20:02.649Z,13.11
2022-10-13T09:22:32.719Z,13.21
2022-10-13T09:25:18.001Z,13.21
2022-10-13T09:27:49.117Z,13.22
2022-10-13T09:30:27.465Z,13.05
2022-10-13T09:33:15.621Z,13.26
2022-10-13T09:35:46.885Z,13.43
2022-10-13T09:38:17.117Z,13.51
2022-10-13T09:40:59.000Z,13.65
2022-10-13T09:43:31.643Z,13.90
2022-10-13T09:46:00.725Z,13.90
2022-10-13T09:48:33.144Z,13.82
2022-10-13T09:51:02.882Z,13.82
2022-10-13T09:53:33.598Z,13.73
2022-10-13T09:56:21.181Z,13.79
2022-10-13T09:58:54.437Z,13.76
2022-10-13T10:01:29.175Z,14.11
2022-10-13T10:03:58.644Z,14.31
2022-10-13T10:06:28.295Z,14.13
2022-10-13T10:09:04.174Z,14.21
2022-10-13T10:11:38.558Z,14.14
2022-10-13T10:14:16.997Z,14.13
2022-10-13T10:16:52.085Z,14.25
2022-10-13T10:19:26.750Z,14.39
2022-10-13T10:22:04.118Z,14.56
2022-10-13T10:24:44.881Z,14.56
2022-10-13T10:29:52.459Z,14.47
2022-10-13T10:32:29.113Z,14.39
2022-10-13T10:35:04.032Z,14.56
2022-10-13T10:37:50.997Z,14.68
2022-10-13T10:40:30.852Z,14.71
2022-10-13T10:43:27.133Z,14.66
2022-10-13T10:45:59.447Z,14.52
2022-10-13T10:48:35.905Z,14.37
2022-10-13T10:51:08.803Z,14.47
2022-10-13T10:53:46.384Z,14.23
2022-10-13T10:56:22.670Z,14.33
2022-10-13T10:58:59.725Z,14.46
2022-10-13T11:01:38.777Z,14.54
2022-10-13T11:04:33.741Z,14.47
2022-10-13T11:07:01.917Z,14.27
2022-10-13T11:10:18.621Z,14.56
2022-10-13T11:13:06.452Z,14.40
2022-10-13T11:15:43.529Z,14.73
2022-10-13T11:18:49.299Z,14.75
2022-10-13T11:21:17.432Z,14.58
2022-10-13T11:23:47.752Z,14.55
2022-10-13T11:26:32.494Z,14.66
2022-10-13T11:29:00.823Z,14.47
2022-10-13T11:31:49.048Z,14.53
2022-10-13T11:34:29.809Z,14.47
2022-10-13T11:37:01.317Z,14.18
2022-10-13T11:40:02.090Z,14.41
2022-10-13T11:43:15.893Z,14.51
2022-10-13T11:46:04.917Z,14.80
2022-10-13T11:48:55.533Z,14.78
2022-10-13T11:51:33.184Z,14.83
2022-10-13T11:54:14.756Z,14.89
2022-10-13T11:56:50.094Z,15.15
2022-10-13T11:59:24.891Z,14.86
2022-10-13T12:01:59.497Z,14.95
2022-10-13T12:04:29.241Z,15.25
2022-10-13T12:07:01.312Z,15.28
2022-10-13T12:09:31.997Z,15.17
2022-10-13T12:12:04.142Z,15.24
2022-10-13T12:17:24.717Z,15.13
2022-10-13T12:19:53.830Z,15.33
2022-10-13T12:22:22.409Z,14.97
2022-10-13T12:25:01.746Z,15.08
2022-10-13T12:27:32.846Z,14.94
2022-10-13T12:30:01.459Z,15.02
2022-10-13T12:32:35.879Z,15.14
2022-10-13T12:35:16.854Z,15.33
2022-10-13T12:37:45.632Z,15.37
2022-10-13T12:40:16.502Z,15.41
2022-10-13T12:42:45.516Z,15.44
2022-10-13T12:45:16.778Z,15.49
2022-10-13T12:47:52.213Z,15.61
2022-10-13T12:50:33.701Z,15.86
2022-10-13T12:53:12.048Z,15.91
2022-10-13T12:55:52.552Z,15.73
2022-10-13T12:58:25.209Z,15.86
2022-10-13T13:00:59.184Z,15.87
2022-10-13T13:03:30.479Z,15.90
2022-10-13T13:06:10.545Z,15.86
2022-10-13T13:08:39.010Z,15.71
2022-10-13T13:11:20.524Z,15.61
2022-10-13T13:13:49.187Z,15.75
2022-10-13T13:16:18.931Z,15.60
2022-10-13T13:18:49.703Z,15.43
2022-10-13T13:21:20.805Z,15.36
2022-10-13T13:23:53.678Z,15.36
2022-10-13T13:26:24.505Z,15.44
2022-10-13T13:28:53.959Z,15.29
2022-10-13T13:31:23.468Z,15.38
2022-10-13T13:33:54.058Z,15.39
2022-10-13T13:36:24.120Z,15.47
2022-10-13T13:38:55.294Z,15.43
2022-10-13T13:41:24.052Z,15.39
2022-10-13T13:43:52.183Z,15.52
2022-10-13T13:46:24.343Z,15.59
2022-10-13T13:48:53.895Z,15.71
2022-10-13T13:51:22.153Z,15.73
2022-10-13T13:53:50.635Z,15.85
2022-10-13T13:56:22.135Z,15.96
2022-10-13T13:58:50.284Z,15.83
2022-10-13T14:01:18.492Z,15.85
2022-10-13T14:03:46.723Z,15.83
2022-10-13T14:06:22.946Z,15.77
2022-10-13T14:08:51.101Z,15.75
2022-10-13T14:11:19.256Z,15.69
2022-10-13T14:13:47.404Z,15.62
2022-10-13T14:16:25.384Z,15.62
2022-10-13T14:18:55.591Z,15.61
2022-10-13T14:21:27.275Z,15.66
2022-10-13T14:23:58.310Z,15.65
2022-10-13T14:26:26.438Z,15.41
2022-10-13T14:28:54.699Z,15.43
2022-10-13T14:31:22.861Z,15.36
2022-10-13T14:33:54.305Z,15.39
2022-10-13T14:36:23.358Z,15.28
2022-10-13T14:38:54.147Z,15.40
2022-10-13T14:41:22.584Z,15.41
2022-10-13T14:43:54.327Z,15.52
2022-10-13T14:46:22.956Z,15.62
2022-10-13T14:48:51.477Z,15.61
2022-10-13T14:51:20.040Z,15.67
2022-10-13T14:53:48.168Z,15.65
2022-10-13T14:56:34.245Z,15.80
2022-10-13T14:59:04.804Z,15.96
2022-10-13T15:01:41.348Z,16.10
2022-10-13T15:04:10.169Z,15.79
2022-10-13T15:06:40.411Z,15.64
2022-10-13T15:11:46.209Z,15.46
2022-10-13T15:14:14.477Z,15.25
2022-10-13T15:16:42.596Z,15.05
2022-10-13T15:19:11.360Z,14.82
2022-10-13T15:21:39.763Z,14.58
2022-10-13T15:24:08.246Z,14.38
2022-10-13T15:26:39.221Z,14.26
2022-10-13T15:29:08.986Z,14.13
2022-10-13T15:31:37.724Z,13.98
2022-10-13T15:34:06.274Z,13.85
2022-10-13T15:36:34.408Z,13.72
2022-10-13T15:39:02.657Z,13.59
2022-10-13T15:41:33.134Z,13.46
2022-10-13T15:44:01.282Z,13.34
2022-10-13T15:46:31.560Z,13.24
2022-10-13T15:49:00.022Z,13.15
2022-10-13T15:51:28.604Z,13.00
2022-10-13T15:53:57.126Z,12.86
2022-10-13T15:56:25.269Z,12.73
2022-10-13T15:58:53.601Z,12.63
2022-10-13T16:01:21.858Z,12.47
2022-10-13T16:03:54.370Z,12.39
2022-10-13T16:06:23.000Z,12.35
2022-10-13T16:08:51.742Z,12.21
2022-10-13T16:11:22.070Z,12.16
2022-10-13T16:13:51.412Z,11.97
2022-10-13T16:16:20.904Z,11.88
2022-10-13T16:18:51.401Z,11.86
2022-10-13T16:21:22.406Z,11.91
2022-10-13T16:23:50.969Z,11.86
2022-10-13T16:26:19.652Z,11.77
2022-10-13T16:28:48.137Z,11.65
2022-10-13T16:31:18.013Z,11.60
2022-10-13T16:33:47.241Z,11.55
2022-10-13T16:36:19.151Z,11.53
2022-10-13T16:38:48.887Z,11.65
2022-10-13T16:41:19.176Z,11.77
2022-10-13T16:43:48.251Z,11.65
2022-10-13T16:46:19.009Z,11.62
2022-10-13T16:48:48.524Z,11.61
2022-10-13T16:51:20.675Z,11.57
2022-10-13T16:53:50.543Z,11.55
2022-10-13T16:56:22.308Z,11.56
2022-10-13T16:58:51.240Z,11.51
2022-10-13T17:01:20.088Z,11.58
2022-10-13T17:03:50.081Z,11.47
2022-10-13T17:06:21.393Z,11.46
2022-10-13T17:08:55.921Z,11.45
2022-10-13T17:11:26.480Z,11.45
2022-10-13T17:13:56.428Z,11.43
2022-10-13T17:16:25.238Z,11.36
2022-10-13T17:18:54.726Z,11.22
2022-10-13T17:21:24.553Z,11.18
2022-10-13T17:23:53.021Z,11.07
2022-10-13T17:26:22.044Z,11.02
2022-10-13T17:28:50.447Z,11.02
2022-10-13T17:31:21.336Z,10.95
2022-10-13T17:33:50.601Z,10.97
2022-10-13T17:36:21.001Z,10.88
2022-10-13T17:38:50.886Z,10.95
2022-10-13T17:41:19.829Z,10.92
2022-10-13T17:43:52.344Z,10.76
2022-10-13T17:46:38.925Z,10.71
2022-10-13T17:49:08.328Z,10.83
2022-10-13T17:51:36.533Z,10.70
2022-10-13T17:54:09.177Z,10.78
2022-10-13T17:56:39.739Z,10.57
2022-10-13T17:59:09.755Z,10.40
2022-10-13T18:01:38.162Z,10.38
2022-10-13T18:04:08.919Z,10.56
2022-10-13T18:06:40.578Z,10.53
2022-10-13T18:09:12.212Z,10.57
2022-10-13T18:11:43.350Z,10.59
2022-10-13T18:14:15.543Z,10.53
2022-10-13T18:16:46.786Z,10.39
2022-10-13T18:19:16.833Z,10.40
2022-10-13T18:21:45.065Z,10.39
2022-10-13T18:24:14.813Z,10.26
2022-10-13T18:26:43.031Z,10.43
2022-10-13T18:29:12.480Z,10.32
2022-10-13T18:31:42.061Z,10.04
2022-10-13T18:34:12.908Z,9.97
2022-10-13T18:36:43.053Z,9.94
2022-10-13T18:39:15.497Z,10.07
2022-10-13T18:41:46.598Z,10.12
2022-10-13T18:44:14.917Z,9.98
2022-10-13T18:46:43.744Z,9.88
2022-10-13T18:49:14.192Z,9.83
2022-10-13T18:51:44.780Z,9.73
2022-10-13T18:54:13.277Z,9.67
2022-10-13T18:56:43.095Z,9.51
2022-10-13T18:59:12.293Z,9.40
2022-10-13T19:01:40.908Z,9.58
2022-10-13T19:04:12.589Z,9.58
2022-10-13T19:06:41.642Z,9.52
2022-10-13T19:09:13.195Z,9.39
2022-10-13T19:11:42.957Z,9.30
2022-10-13T19:14:13.965Z,9.23
2022-10-13T19:16:43.969Z,9.09
2022-10-13T19:19:12.940Z,9.27
2022-10-13T19:21:41.664Z,9.24
2022-10-13T19:24:11.121Z,9.08
2022-10-13T19:26:40.003Z,9.14
2022-10-13T19:29:11.601Z,9.03
2022-10-13T19:31:42.361Z,9.08
2022-10-13T19:34:11.997Z,8.90
2022-10-13T19:36:42.764Z,8.83
2022-10-13T19:39:15.323Z,8.81
2022-10-13T19:41:44.914Z,8.86
2022-10-13T19:44:14.717Z,8.77
2022-10-13T19:46:44.509Z,8.44
2022-10-13T19:49:14.660Z,8.54
2022-10-13T19:51:46.624Z,8.49
2022-10-13T19:54:15.336Z,8.62
2022-10-13T19:56:47.387Z,8.60
2022-10-13T19:59:17.646Z,8.59
2022-10-13T20:01:45.952Z,8.51
2022-10-13T20:04:15.847Z,8.42
2022-10-13T20:06:44.875Z,8.48
2022-10-13T20:09:13.585Z,8.38
2022-10-13T20:11:41.822Z,8.29
2022-10-13T20:14:09.955Z,8.13
2022-10-13T20:16:39.401Z,8.23
2022-10-13T20:19:08.255Z,8.04
2022-10-13T20:21:36.369Z,7.98
2022-10-13T20:24:04.667Z,7.96
2022-10-13T20:26:32.984Z,8.04
2022-10-13T20:29:01.661Z,8.17
2022-10-13T20:31:29.997Z,8.21
2022-10-13T20:34:00.235Z,8.08
2022-10-13T20:36:37.524Z,8.07
2022-10-13T20:39:07.109Z,8.03
2022-10-13T20:41:35.519Z,7.99
2022-10-13T20:44:04.088Z,7.93
2022-10-13T20:46:34.983Z,7.96
2022-10-13T20:49:13.042Z,7.86
2022-10-13T20:51:42.541Z,7.89
2022-10-13T20:54:14.429Z,7.96
2022-10-13T20:56:43.057Z,7.77
2022-10-13T20:59:14.475Z,7.71
2022-10-13T21:01:43.101Z,7.77
2022-10-13T21:04:12.739Z,7.90
2022-10-13T21:06:41.625Z,7.95
2022-10-13T21:09:10.238Z,7.74
2022-10-13T21:11:40.577Z,7.73
2022-10-13T21:14:10.163Z,7.80
2022-10-13T21:16:38.875Z,7.71
2022-10-13T21:19:14.953Z,7.70
2022-10-13T21:21:43.175Z,7.65
2022-10-13T21:24:12.223Z,7.76
2022-10-13T21:26:41.084Z,7.60
2022-10-13T21:29:14.940Z,7.74
2022-10-13T21:31:43.495Z,7.61
2022-10-13T21:34:12.364Z,7.61
2022-10-13T21:36:44.438Z,7.70
2022-10-13T21:39:14.607Z,7.55
2022-10-13T21:41:42.765Z,7.52
2022-10-13T21:44:13.724Z,7.46
2022-10-13T21:46:41.930Z,7.24
2022-10-13T21:49:10.987Z,7.40
2022-10-13T21:51:41.926Z,7.32
2022-10-13T21:54:12.770Z,7.27
2022-10-13T21:56:42.063Z,7.23
2022-10-13T21:59:13.415Z,7.20
2022-10-13T22:01:42.513Z,7.22
2022-10-13T22:04:14.744Z,7.17
2022-10-13T22:06:44.649Z,7.06
2022-10-13T22:09:13.056Z,7.06
2022-10-13T22:11:42.060Z,7.17
2022-10-13T22:14:13.193Z,7.13
2022-10-13T22:16:43.904Z,7.12
2022-10-13T22:19:12.451Z,7.19
2022-10-13T22:21:42.678Z,7.17
2022-10-13T22:24:15.400Z,7.05
2022-10-13T22:26:44.975Z,7.17
2022-10-13T22:29:19.520Z,7.16
2022-10-13T22:31:48.725Z,7.18
2022-10-13T22:34:17.738Z,7.18
2022-10-13T22:36:45.992Z,7.11
2022-10-13T22:39:16.165Z,6.85
2022-10-13T22:41:44.434Z,6.81
2022-10-13T22:44:13.437Z,6.90
2022-10-13T22:46:41.662Z,7.12
2022-10-13T22:49:14.680Z,7.09
2022-10-13T22:51:43.019Z,7.11
2022-10-13T22:54:11.626Z,7.15
2022-10-13T22:56:41.593Z,7.06
2022-10-13T22:59:10.317Z,7.08
2022-10-13T23:01:38.701Z,7.09
2022-10-13T23:04:07.073Z,7.09
2022-10-13T23:06:36.626Z,7.13
2022-10-13T23:09:09.518Z,6.95
2022-10-13T23:11:37.976Z,6.91
2022-10-13T23:14:08.121Z,6.91
2022-10-13T23:16:36.265Z,6.92
2022-10-13T23:19:04.861Z,6.83
2022-10-13T23:21:33.080Z,6.66
2022-10-13T23:24:03.295Z,6.60
2022-10-13T23:26:32.283Z,6.55
2022-10-13T23:29:01.060Z,6.54
2022-10-13T23:31:31.207Z,6.59
2022-10-13T23:33:59.596Z,6.70
2022-10-13T23:36:29.345Z,6.64
2022-10-13T23:38:59.832Z,6.74
2022-10-13T23:41:28.737Z,6.59
2022-10-13T23:43:57.274Z,6.43
2022-10-13T23:46:26.145Z,6.37
2022-10-13T23:48:55.746Z,6.17
2022-10-13T23:51:25.892Z,6.35
2022-10-13T23:53:54.363Z,6.42
2022-10-13T23:56:23.319Z,6.52
2022-10-13T23:58:51.484Z,6.44
